Time;durP1;ratioP1;P1;durP2;ratioP2;P2;SDS_P1;SDS_P2;PMS_P1;PMS_P2;Temp;Humidity;BMP_temperature;BMP_pressure;BME280_temperature;BME280_humidity;BME280_pressure;Samples;Min_cycle;Max_cycle;Signal;HPM_P1;HPM_P2
2024/03/17 00:00:32;;;;;;;22.02;3.25;;;;;;;8.60;61.16;101835.19;5071702;27;99144;-70
2024/03/17 00:02:58;;;;;;;;;;;;;;;8.56;61.12;101838.72;5077915;27;96843;-71
2024/03/17 00:05:25;;;;;;;20.75;2.42;;;;;;;8.82;60.46;101839.34;5078343;27;96987;-71
2024/03/17 00:07:51;;;;;;;12.27;1.95;;;;;;;8.82;60.43;101841.97;5068734;27;99437;-72
2024/03/17 00:10:17;;;;;;;18.35;2.42;;;;;;;8.63;60.92;101840.41;5071688;27;101852;-70
2024/03/17 00:12:43;;;;;;;;;;;;;;;8.49;61.98;101852.84;5074384;27;96950;-71
2024/03/17 00:15:10;;;;;;;12.35;1.65;;;;;;;8.45;61.86;101851.13;5082209;27;97143;-71
2024/03/17 00:17:36;;;;;;;18.52;2.85;;;;;;;8.81;61.00;101845.50;5069654;27;101709;-71
2024/03/17 00:20:04;;;;;;;20.83;2.10;;;;;;;8.65;61.43;101849.19;5072406;27;98733;-71
2024/03/17 00:22:35;;;;;;;25.55;2.88;;;;;;;8.52;62.12;101847.56;5069017;27;96810;-71
2024/03/17 00:25:00;;;;;;;15.07;1.95;;;;;;;8.56;61.83;101838.72;5074662;27;97088;-71
2024/03/17 00:27:26;;;;;;;;;;;;;;;8.73;61.21;101837.66;5071335;27;99279;-71
2024/03/17 00:29:52;;;;;;;17.58;2.95;;;;;;;8.40;62.43;101841.50;5068339;27;98814;-72
2024/03/17 00:32:18;;;;;;;;;;;;;;;8.52;62.29;101848.44;5075359;27;96715;-71
2024/03/17 00:34:44;;;;;;;19.48;2.33;;;;;;;8.45;62.31;101851.13;5072120;27;97241;-72
2024/03/17 00:37:10;;;;;;;;;;;;;;;8.71;61.58;101855.28;5073734;27;100829;-70
2024/03/17 00:39:38;;;;;;;10.53;1.43;;;;;;;8.33;62.27;101854.75;5070257;27;102177;-71
2024/03/17 00:42:04;;;;;;;18.67;2.53;;;;;;;8.28;62.36;101857.38;5070227;27;98284;-71
2024/03/17 00:44:30;;;;;;;;;;;;;;;8.56;62.20;101862.44;5065870;27;98007;-71
2024/03/17 00:46:55;;;;;;;27.42;2.45;;;;;;;8.71;61.49;101860.53;5070677;27;99438;-71
2024/03/17 00:49:21;;;;;;;;;;;;;;;8.69;61.57;101866.69;5067881;27;98798;-71
2024/03/17 00:51:49;;;;;;;25.77;2.80;;;;;;;8.65;61.69;101865.00;5072082;27;96796;-70
2024/03/17 00:54:17;;;;;;;14.90;2.33;;;;;;;8.64;61.51;101860.63;5068245;27;96836;-70
2024/03/17 00:56:47;;;;;;;17.77;3.28;;;;;;;8.25;62.63;101860.06;5071353;27;102073;-71
2024/03/17 00:59:14;;;;;;;13.07;1.75;;;;;;;8.24;62.85;101858.31;5070338;27;100011;-72
2024/03/17 01:01:40;;;;;;;25.48;2.08;;;;;;;8.67;61.46;101860.56;5071871;27;96746;-71
2024/03/17 01:04:06;;;;;;;;;;;;;;;9.07;60.08;101867.16;5071512;27;96908;-70
2024/03/17 01:06:32;;;;;;;13.90;2.10;;;;;;;9.01;60.00;101861.97;5070995;27;98799;-71
2024/03/17 01:08:59;;;;;;;16.85;1.88;;;;;;;9.08;59.54;101860.13;5070088;27;99260;-70
2024/03/17 01:11:25;;;;;;;16.88;2.33;;;;;;;9.13;59.26;101861.81;5071788;27;97511;-71
2024/03/17 01:13:52;;;;;;;;;;;;;;;9.08;59.04;101866.28;5071577;27;97567;-71
2024/03/17 01:16:17;;;;;;;22.38;2.97;;;;;;;9.01;59.94;101869.88;5068695;27;99228;-71
2024/03/17 01:18:45;;;;;;;;;;;;;;;8.98;59.74;101864.66;5070219;27;99328;-71
2024/03/17 01:21:11;;;;;;;23.17;3.70;;;;;;;8.97;60.13;101869.94;5071273;27;96987;-70
2024/03/17 01:23:38;;;;;;;14.73;2.28;;;;;;;9.00;60.10;101870.75;5072062;27;97117;-71
2024/03/17 01:26:04;;;;;;;24.60;2.75;;;;;;;8.89;60.61;101859.47;5070621;27;98855;-71
2024/03/17 01:28:30;;;;;;;;;;;;;;;8.90;60.53;101860.34;5070060;27;97799;-71
2024/03/17 01:30:56;;;;;;;20.35;3.20;;;;;;;8.73;61.79;101864.00;5069036;27;97097;-71
2024/03/17 01:33:23;;;;;;;13.35;1.80;;;;;;;8.99;60.51;101863.72;5069977;27;97272;-70
2024/03/17 01:35:48;;;;;;;24.33;3.08;;;;;;;8.85;60.80;101865.66;5070712;27;98891;-71
2024/03/17 01:38:15;;;;;;;;;;;;;;;8.61;61.55;101865.91;5068485;27;98780;-70
2024/03/17 01:40:40;;;;;;;16.85;2.08;;;;;;;8.67;62.13;101853.53;5069424;27;96748;-71
2024/03/17 01:43:11;;;;;;;;;;;;;;;8.60;62.13;101856.28;5071405;27;96915;-70
2024/03/17 01:45:36;;;;;;;16.65;1.73;;;;;;;8.58;62.65;101851.00;5070994;27;98793;-71
2024/03/17 01:48:04;;;;;;;;;;;;;;;8.22;63.53;101856.56;5069289;27;97734;-70
2024/03/17 01:50:34;;;;;;;20.67;2.20;;;;;;;7.95;64.66;101855.00;5070538;27;96790;-71
2024/03/17 01:53:04;;;;;;;19.30;2.47;;;;;;;8.10;64.75;101860.16;5071019;27;96955;-71
2024/03/17 01:55:30;;;;;;;26.10;2.40;;;;;;;8.02;64.69;101856.72;5069581;27;99975;-70
2024/03/17 01:57:57;;;;;;;15.75;2.35;;;;;;;7.70;66.01;101861.31;5069915;27;97765;-70
2024/03/17 02:00:23;;;;;;;15.95;2.00;;;;;;;7.48;67.39;101850.91;5070474;27;97236;-71
2024/03/17 02:02:49;;;;;;;;;;;;;;;7.39;67.97;101858.00;5069396;27;96773;-70
2024/03/17 02:05:17;;;;;;;15.65;2.05;;;;;;;7.65;67.64;101860.47;5066740;27;99868;-71
2024/03/17 02:07:44;;;;;;;20.90;2.67;;;;;;;7.74;66.67;101868.34;5070418;27;101397;-71
2024/03/17 02:10:09;;;;;;;19.48;2.45;;;;;;;7.67;66.86;101866.63;5069811;27;96633;-71
2024/03/17 02:12:36;;;;;;;;;;;;;;;7.92;66.01;101868.22;5071810;27;96885;-71
2024/03/17 02:15:05;;;;;;;;;;;;;;;8.05;65.55;101861.97;5060899;27;97003;-71
2024/03/17 02:17:31;;;;;;;;;;;;;;;8.16;65.13;101865.38;5073989;27;99799;-71
2024/03/17 02:19:56;;;;;;;;;;;;;;;8.05;64.85;101869.88;5070792;27;101575;-71
2024/03/17 02:22:24;;;;;;;;;;;;;;;7.77;66.10;101869.16;5074658;27;96802;-71
2024/03/17 02:24:49;;;;;;;;;;;;;;;7.80;66.02;101869.16;5074402;27;97314;-71
2024/03/17 02:27:16;;;;;;;;;;;;;;;8.12;64.71;101862.78;5075256;27;98682;-71
2024/03/17 02:29:42;;;;;;;;;;;;;;;8.11;64.94;101851.38;5072280;27;97244;-71
2024/03/17 02:32:07;;;;;;;;;;;;;;;7.92;65.33;101860.31;5071493;27;96795;-71
2024/03/17 02:34:34;;;;;;;;;;;;;;;7.56;65.96;101867.53;5067741;27;100806;-71
2024/03/17 02:37:00;;;;;;;;;;;;;;;7.39;67.07;101874.66;5073864;27;102034;-71
2024/03/17 02:39:38;;;;;;;;;;;;;;;7.52;67.46;101878.09;5070673;27;96973;-71
2024/03/17 02:42:05;;;;;;;;;;;;;;;7.53;67.20;101877.22;5073618;27;100658;-71
2024/03/17 02:44:32;;;;;;;;;;;;;;;7.47;67.54;101864.97;5074463;27;98808;-72
2024/03/17 02:46:58;;;;;;;;;;;;;;;7.45;67.03;101865.84;5070357;27;101484;-71
2024/03/17 02:49:24;;;;;;;;;;;;;;;7.03;69.45;101877.41;5072090;27;98891;-71
2024/03/17 02:51:51;;;;;;;;;;;;;;;7.13;68.89;101873.88;5073699;27;97150;-71
2024/03/17 02:54:17;;;;;;;;;;;;;;;7.34;68.44;101865.03;5073088;27;98060;-71
2024/03/17 02:56:44;;;;;;;;;;;;;;;7.31;68.24;101876.44;5071697;27;98925;-71
2024/03/17 02:59:11;;;;;;;;;;;;;;;7.48;67.30;101879.00;5071144;27;96768;-71
2024/03/17 03:01:37;;;;;;;;;;;;;;;7.41;68.05;101867.63;5068428;27;96852;-71
2024/03/17 03:04:03;;;;;;;;;;;;;;;7.32;68.11;101872.94;5072906;27;99572;-71
2024/03/17 03:06:29;;;;;;;;;;;;;;;7.48;67.53;101869.31;5072229;27;98707;-71
2024/03/17 03:08:55;;;;;;;;;;;;;;;7.36;68.35;101873.75;5070156;27;97055;-71
2024/03/17 03:11:22;;;;;;;;;;;;;;;7.27;68.89;101873.81;5073575;27;96804;-71
2024/03/17 03:13:49;;;;;;;;;;;;;;;7.57;67.74;101863.16;5072413;27;99380;-71
2024/03/17 03:16:15;;;;;;;;;;;;;;;7.61;67.25;101871.00;5071359;27;98169;-71
2024/03/17 03:18:44;;;;;;;;;;;;;;;7.16;68.68;101876.47;5071510;27;96791;-70
2024/03/17 03:21:10;;;;;;;;;;;;;;;7.15;68.77;101870.34;5074101;27;96857;-71
2024/03/17 03:23:36;;;;;;;;;;;;;;;7.08;69.54;101871.28;5073314;27;99181;-71
2024/03/17 03:26:04;;;;;;;;;;;;;;;7.03;69.89;101874.75;5072879;27;98900;-71
2024/03/17 03:28:31;;;;;;;;;;;;;;;7.05;69.53;101876.53;5073162;27;96797;-71
2024/03/17 03:30:58;;;;;;;;;;;;;;;6.92;70.15;101873.94;5066512;27;96971;-71
2024/03/17 03:33:25;;;;;;;;;;;;;;;6.93;70.62;101878.31;5072031;27;98850;-71
2024/03/17 03:35:51;;;;;;;;;;;;;;;6.62;71.79;101877.50;5070061;27;98787;-72
2024/03/17 03:38:18;;;;;;;;;;;;;;;6.97;70.95;101877.41;5073254;27;96897;-71
2024/03/17 03:40:44;;;;;;;;;;;;;;;7.17;70.06;101883.50;5069912;27;96780;-72
2024/03/17 03:43:10;;;;;;;;;;;;;;;7.38;68.84;101872.88;5071563;27;98969;-71
2024/03/17 03:45:37;;;;;;;;;;;;;;;7.30;68.65;101877.31;5072052;27;98756;-71
2024/03/17 03:48:06;;;;;;;;;;;;;;;7.59;68.09;101882.44;5071573;27;96821;-72
2024/03/17 03:50:33;;;;;;;;;;;;;;;7.59;68.06;101883.31;5070721;27;97309;-71
2024/03/17 03:52:58;;;;;;;;;;;;;;;7.70;67.23;101883.25;5072301;27;101356;-72
2024/03/17 03:55:24;;;;;;;;;;;;;;;7.66;67.75;101884.16;5071656;27;101506;-71
2024/03/17 03:57:52;;;;;;;;;;;;;;;7.59;67.92;101893.84;5071088;27;99226;-71
2024/03/17 04:00:21;;;;;;;;;;;;;;;7.09;70.20;101882.63;5070395;27;97563;-71
2024/03/17 04:02:47;;;;;;;;;;;;;;;7.42;69.31;101894.78;5071882;27;98942;-71
2024/03/17 04:05:15;;;;;;;;;;;;;;;7.84;68.03;101886.66;5071198;27;99163;-71
2024/03/17 04:07:42;;;;;;;;;;;;;;;7.77;67.84;101890.22;5071370;27;96786;-71
2024/03/17 04:10:09;;;;;;;;;;;;;;;8.11;66.71;101890.88;5069639;27;97783;-72
2024/03/17 04:12:36;;;;;;;;;;;;;;;7.82;67.35;101887.56;5071647;27;100802;-71
2024/03/17 04:15:02;;;;;;;;;;;;;;;7.64;67.75;101891.19;5070919;27;97334;-71
2024/03/17 04:17:29;;;;;;;;;;;;;;;7.95;67.50;101882.19;5071684;27;97133;-71
2024/03/17 04:19:55;;;;;;;;;;;;;;;7.86;67.83;101886.66;5069857;27;97624;-72
2024/03/17 04:22:23;;;;;;;;;;;;;;;7.57;69.03;101885.06;5069878;27;101540;-71
2024/03/17 04:24:53;;;;;;;;;;;;;;;7.74;68.85;101881.50;5071806;27;98117;-71
2024/03/17 04:27:19;;;;;;;;;;;;;;;7.66;69.33;101888.53;5072600;27;96870;-71
2024/03/17 04:29:47;;;;;;;;;;;;;;;7.71;69.42;101886.75;5071086;27;96897;-71
2024/03/17 04:32:13;;;;;;;;;;;;;;;8.06;68.16;101881.28;5070450;27;101109;-71
2024/03/17 04:34:39;;;;;;;;;;;;;;;7.72;69.01;101884.13;5069095;27;102624;-71
2024/03/17 04:37:06;;;;;;;;;;;;;;;7.60;69.71;101887.69;5069840;27;98170;-71
2024/03/17 04:39:33;;;;;;;;;;;;;;;7.67;69.57;101892.94;5069518;27;97377;-71
2024/03/17 04:41:59;;;;;;;;;;;;;;;7.91;68.45;101895.41;5071620;27;98044;-71
2024/03/17 04:44:26;;;;;;;;;;;;;;;7.89;68.14;101897.16;5071290;27;98818;-71
2024/03/17 04:46:52;;;;;;;;;;;;;;;7.58;69.14;101894.72;5070474;27;96864;-71
2024/03/17 04:49:18;;;;;;;;;;;;;;;7.56;69.12;101904.34;5065076;27;96817;-71
2024/03/17 04:51:44;;;;;;;;;;;;;;;7.61;68.91;101909.63;5069601;27;99057;-71
2024/03/17 04:54:10;;;;;;;;;;;;;;;7.86;68.47;101913.00;5069656;27;102170;-71
2024/03/17 04:56:38;;;;;;;;;;;;;;;8.03;67.84;101916.38;5071592;27;96693;-71
2024/03/17 04:59:05;;;;;;;;;;;;;;;7.61;68.93;101915.72;5069109;27;97154;-71
2024/03/17 05:01:35;;;;;;;;;;;;;;;7.86;68.34;101913.88;5070866;27;99016;-71
2024/03/17 05:04:02;;;;;;;;;;;;;;;8.06;67.58;101921.63;5069341;27;98769;-71
2024/03/17 05:06:29;;;;;;;;;;;;;;;8.06;66.92;101911.09;5071538;27;97034;-71
2024/03/17 05:08:55;;;;;;;;;;;;;;;8.06;67.03;101913.75;5067669;27;96868;-71
2024/03/17 05:11:23;;;;;;;;;;;;;;;7.74;67.99;101918.31;5068788;27;99211;-72
2024/03/17 05:13:51;;;;;;;;;;;;;;;7.75;68.40;101915.66;5071632;27;101940;-71
2024/03/17 05:16:18;;;;;;;;;;;;;;;7.78;68.13;101913.03;5071428;27;96847;-71
2024/03/17 05:18:44;;;;;;;;;;;;;;;7.80;68.36;101913.03;5069886;27;97179;-70
2024/03/17 05:21:10;;;;;;;;;;;;;;;7.76;68.09;101906.88;5069366;27;98758;-71
2024/03/17 05:23:37;;;;;;;;;;;;;;;8.01;67.42;101911.13;5071427;27;97594;-71
2024/03/17 05:26:04;;;;;;;;;;;;;;;7.93;67.44;101919.97;5071225;27;96748;-71
2024/03/17 05:28:31;;;;;;;;;;;;;;;8.01;67.11;101918.13;5075588;27;96818;-71
2024/03/17 05:30:59;;;;;;;;;;;;;;;7.95;66.82;101920.81;5064300;27;98883;-71
2024/03/17 05:33:25;;;;;;;;;;;;;;;8.02;66.81;101923.41;5066366;27;98801;-71
2024/03/17 05:35:53;;;;;;;;;;;;;;;8.03;67.01;101926.91;5064100;27;97092;-71
2024/03/17 05:38:20;;;;;;;;;;;;;;;8.14;66.57;101929.50;5071277;27;96919;-71
2024/03/17 05:40:53;;;;;;;;;;;;;;;8.09;66.44;101933.88;5067669;27;101673;-71
2024/03/17 05:43:20;;;;;;;;;;;;;;;8.13;66.05;101927.75;5065385;27;98816;-71
2024/03/17 05:45:46;;;;;;;;;;;;;;;8.07;66.13;101933.91;5072298;27;97020;-71
2024/03/17 05:48:14;;;;;;;;;;;;;;;8.24;65.77;101933.78;5070505;27;97146;-71
2024/03/17 05:50:40;;;;;;;;;;;;;;;8.25;65.89;101928.53;5071703;27;99119;-71
2024/03/17 05:53:07;;;;;;;;;;;;;;;8.26;66.11;101929.41;5074876;27;98868;-71
2024/03/17 05:55:35;;;;;;;;;;;;;;;8.23;66.00;101932.91;5074745;27;96877;-70
2024/03/17 05:58:03;;;;;;;;;;;;;;;7.81;67.55;101935.84;5071349;27;96986;-71
2024/03/17 06:00:30;;;;;;;;;;;;;;;7.88;67.47;101948.03;5071598;27;99247;-71
2024/03/17 06:02:56;;;;;;;;;;;;;;;7.97;67.70;101950.63;5072510;27;98938;-71
2024/03/17 06:05:24;;;;;;;;;;;;;;;8.19;66.43;101951.38;5074371;27;97489;-70
2024/03/17 06:07:50;;;;;;;;;;;;;;;8.10;67.23;101962.84;5074138;27;97133;-70
2024/03/17 06:10:17;;;;;;;;;;;;;;;8.17;66.79;101956.66;5073538;27;97647;-70
2024/03/17 06:12:43;;;;;;;;;;;;;;;8.10;67.71;101964.59;5071220;27;98893;-71
2024/03/17 06:15:10;;;;;;;;;;;;;;;8.14;67.19;101959.28;5071288;27;97280;-72
2024/03/17 06:17:36;;;;;;;;;;;;;;;8.42;66.37;101962.66;5075031;27;96919;-72
2024/03/17 06:20:03;;;;;;;;;;;;;;;8.16;67.80;101970.69;5073791;27;99284;-71
2024/03/17 06:22:29;;;;;;;;;;;;;;;8.51;66.44;101965.22;5073487;27;99160;-71
2024/03/17 06:24:56;;;;;;;;;;;;;;;8.15;67.22;101973.34;5074057;27;96747;-71
2024/03/17 06:27:23;;;;;;;;;;;;;;;8.21;67.22;101975.94;5075000;27;96896;-71
2024/03/17 06:29:49;;;;;;;;;;;;;;;8.57;66.03;101973.09;5073062;27;98885;-71
2024/03/17 06:32:17;;;;;;;;;;;;;;;8.73;64.82;101969.41;5072691;27;98691;-70
2024/03/17 06:34:43;;;;;;;;;;;;;;;8.85;64.22;101971.09;5074297;27;97189;-71
2024/03/17 06:37:10;;;;;;;;;;;;;;;8.84;64.22;101974.63;5074360;27;96781;-70
2024/03/17 06:39:37;;;;;;;;;;;;;;;9.21;62.78;101977.75;5072331;27;101401;-71
2024/03/17 06:42:04;;;;;;;;;;;;;;;9.41;62.32;101972.28;5070164;27;99259;-70
2024/03/17 06:44:32;;;;;;;;;;;;;;;9.58;60.68;101979.09;5074288;27;96707;-71
2024/03/17 06:46:58;;;;;;;;;;;;;;;9.37;61.15;101983.75;5071535;27;97014;-71
2024/03/17 06:49:25;;;;;;;;;;;;;;;9.71;59.98;101987.78;5072066;27;101892;-71
2024/03/17 06:51:51;;;;;;;;;;;;;;;9.65;59.27;101987.81;5073944;27;98745;-71
2024/03/17 06:54:17;;;;;;;;;;;;;;;9.76;59.21;101993.84;5075048;27;97994;-71
2024/03/17 06:56:45;;;;;;;;;;;;;;;9.67;58.72;101988.69;5075636;27;96998;-71
2024/03/17 06:59:12;;;;;;;;;;;;;;;9.53;59.05;101995.88;5073584;27;98902;-71
2024/03/17 07:01:38;;;;;;;;;;;;;;;9.58;59.03;102004.63;5069126;27;98717;-70
2024/03/17 07:04:05;;;;;;;;;;;;;;;9.66;58.70;102004.53;5072467;27;96770;-71
2024/03/17 07:06:31;;;;;;;;;;;;;;;10.12;57.09;102003.03;5073936;27;96945;-71
2024/03/17 07:08:58;;;;;;;;;;;;;;;10.13;56.72;102012.72;5069905;27;98884;-71
2024/03/17 07:11:24;;;;;;;;;;;;;;;10.13;56.42;102007.44;5072628;27;98720;-71
2024/03/17 07:13:52;;;;;;;;;;;;;;;10.38;55.64;102011.50;5074028;27;96721;-72
2024/03/17 07:16:21;;;;;;;;;;;;;;;10.27;55.58;102015.22;5071522;27;97411;-71
2024/03/17 07:18:47;;;;;;;;;;;;;;;10.39;55.89;102017.66;5073194;27;98839;-71
2024/03/17 07:21:13;;;;;;;;;;;;;;;10.29;55.38;102026.63;5069532;27;99506;-71
2024/03/17 07:23:40;;;;;;;;;;;;;;;10.11;55.79;102018.94;5072130;27;96809;-71
2024/03/17 07:26:09;;;;;;;;;;;;;;;10.20;55.93;102019.69;5073985;27;96882;-71
2024/03/17 07:28:35;;;;;;;;;;;;;;;10.15;55.57;102025.91;5074075;27;99214;-71
2024/03/17 07:31:03;;;;;;;;;;;;;;;10.30;55.83;102026.63;5072013;27;98727;-72
2024/03/17 07:33:29;;;;;;;;;;;;;;;10.44;55.48;102033.44;5072792;27;97289;-71
2024/03/17 07:35:56;;;;;;;;;;;;;;;10.67;54.98;102032.22;5073533;27;97783;-71
2024/03/17 07:38:25;;;;;;;;;;;;;;;10.86;54.02;102031.94;5071171;27;101150;-71
2024/03/17 07:40:58;;;;;;;;;;;;;;;10.93;54.09;102036.22;5063543;27;99973;-71
2024/03/17 07:43:25;;;;;;;;;;;;;;;10.87;54.11;102039.84;5073284;27;98000;-71
2024/03/17 07:45:58;;;;;;;;;;;;;;;11.04;53.40;102037.78;5070994;27;96862;-71
2024/03/17 07:48:25;;;;;;;;;;;;;;;10.86;53.82;102042.50;5071875;27;98979;-71
2024/03/17 07:50:54;;;;;;;;;;;;;;;10.68;54.30;102044.56;5072439;27;98954;-71
2024/03/17 07:53:20;;;;;;;;;;;;;;;10.87;53.79;102046.91;5073400;27;96792;-71
2024/03/17 07:55:47;;;;;;;;;;;;;;;10.73;53.71;102049.75;5070926;27;96790;-70
2024/03/17 07:58:13;;;;;;;;;;;;;;;11.08;52.74;102043.91;5071642;27;97810;-69
2024/03/17 08:00:39;;;;;;;;;;;;;;;10.96;52.58;102041.47;5072649;27;99194;-70
2024/03/17 08:03:07;;;;;;;;;;;;;;;10.59;52.84;102041.16;5072262;27;96862;-70
2024/03/17 08:05:34;;;;;;;;;;;;;;;10.67;53.02;102042.81;5071811;27;97461;-71
2024/03/17 08:08:00;;;;;;;;;;;;;;;10.72;52.79;102048.88;5070386;27;100214;-70
2024/03/17 08:10:27;;;;;;;;;;;;;;;10.40;52.72;102040.56;5070424;27;98746;-70
2024/03/17 08:12:53;;;;;;;;;;;;;;;10.12;52.63;102045.31;5073098;27;96749;-70
2024/03/17 08:15:19;;;;;;;;;;;;;;;10.96;51.84;102042.31;5070742;27;97204;-71
2024/03/17 08:17:46;;;;;;;;;;;;;;;11.26;50.49;102045.34;5072871;27;99030;-71
2024/03/17 08:20:12;;;;;;;;;;;;;;;11.01;50.43;102045.78;5072874;27;98129;-71
2024/03/17 08:22:40;;;;;;;;;;;;;;;11.77;48.63;102032.94;5072433;27;96996;-72
2024/03/17 08:25:07;;;;;;;;;;;;;;;12.22;46.87;102041.69;5070045;27;96864;-71
2024/03/17 08:27:33;;;;;;;;;;;;;;;12.61;46.26;102045.22;5059913;27;101032;-72
2024/03/17 08:29:59;;;;;;;;;;;;;;;12.37;45.67;102041.38;5074225;27;99525;-71
2024/03/17 08:32:26;;;;;;;;;;;;;;;12.45;45.45;102042.06;5073358;27;96804;-72
2024/03/17 08:34:52;;;;;;;;;;;;;;;12.31;46.17;102038.84;5077779;27;97417;-72
2024/03/17 08:37:19;;;;;;;;;;;;;;;12.14;46.37;102041.00;5074188;27;98904;-71
2024/03/17 08:39:47;;;;;;;;;;;;;;;11.68;47.75;102036.63;5070483;27;101494;-71
2024/03/17 08:42:13;;;;;;;;;;;;;;;11.77;47.67;102032.94;5063879;27;97678;-71
2024/03/17 08:44:40;;;;;;;;;;;;;;;12.12;47.69;102033.09;5069322;27;96940;-71
2024/03/17 08:47:06;;;;;;;;;;;;;;;12.54;45.97;102033.00;5072538;27;98761;-69
2024/03/17 08:49:32;;;;;;;;;;;;;;;12.51;45.55;102038.41;5066050;27;99961;-70
2024/03/17 08:51:59;;;;;;;;;;;;;;;13.03;44.70;102032.72;5070876;27;96891;-71
2024/03/17 08:54:25;;;;;;;;;;;;;;;12.95;44.05;102039.97;5079307;27;96989;-71
2024/03/17 08:56:53;;;;;;;;;;;;;;;12.11;45.29;102039.28;5072814;27;99011;-70
2024/03/17 08:59:19;;;;;;;;;;;;;;;12.52;45.45;102042.81;5069679;27;98788;-71
2024/03/17 09:01:45;;;;;;;;;;;;;;;12.72;43.60;102043.22;5074998;27;96874;-70
2024/03/17 09:04:12;;;;;;;;;;;;;;;12.51;42.83;102049.88;5067962;27;97932;-71
2024/03/17 09:06:39;;;;;;;;;;;;;;;12.81;42.35;102045.63;5064676;27;99245;-71
2024/03/17 09:09:06;;;;;;;;;;;;;;;12.85;41.53;102039.34;5072960;27;98705;-71
2024/03/17 09:11:32;;;;;;;;;;;;;;;11.98;43.54;102048.41;5073074;27;99384;-71
2024/03/17 09:14:00;;;;;;;;;;;;;;;12.83;42.71;102046.47;5078281;27;97112;-71
2024/03/17 09:16:28;;;;;;;;;;;;;;;13.60;41.70;102043.59;5074827;27;99357;-71
2024/03/17 09:18:54;;;;;;;;;;;;;;;14.08;40.07;102043.13;5068737;27;98802;-71
2024/03/17 09:21:22;;;;;;;;;;;;;;;13.38;39.90;102045.13;5073251;27;96960;-71
2024/03/17 09:23:48;;;;;;;;;;;;;;;13.47;40.49;102044.84;5071172;27;97267;-70
2024/03/17 09:26:16;;;;;;;;;;;;;;;13.58;39.58;102037.47;5078819;27;99369;-71
2024/03/17 09:28:43;;;;;;;;;;;;;;;13.53;39.64;102047.34;5073209;27;99809;-71
2024/03/17 09:31:12;;;;;;;;;;;;;;;13.75;39.76;102043.19;5073702;27;97275;-70
2024/03/17 09:33:38;;;;;;;;;;;;;;;13.48;40.45;102043.94;5074811;27;97204;-71
2024/03/17 09:36:05;;;;;;;;;;;;;;;13.16;41.21;102048.31;5074609;27;98983;-71
2024/03/17 09:38:32;;;;;;;;;;;;;;;12.78;42.13;102051.03;5072725;27;99133;-71
2024/03/17 09:41:00;;;;;;;;;;;;;;;12.80;42.03;102057.13;5069729;27;96897;-71
2024/03/17 09:43:27;;;;;;;;;;;;;;;13.14;41.61;102051.91;5069802;27;97627;-71
2024/03/17 09:45:57;;;;;;;;;;;;;;;13.07;41.43;102043.19;5074048;27;98981;-71
2024/03/17 09:48:25;;;;;;;;;;;;;;;13.55;39.92;102049.06;5075752;27;99098;-72
2024/03/17 09:50:55;;;;;;;;;;;;;;;13.28;40.21;102043.59;5072008;27;96783;-71
2024/03/17 09:53:23;;;;;;;;;;;;;;;13.81;39.15;102039.47;5076087;27;97043;-71
2024/03/17 09:55:50;;;;;;;;;;;;;;;13.95;38.96;102048.81;5068617;27;97196;-71
2024/03/17 09:58:16;;;;;;;;;;;;;;;14.02;39.12;102040.66;5072893;27;97573;-72
2024/03/17 10:00:42;;;;;;;;;;;;;;;14.42;38.75;102038.56;5072284;27;96897;-71
2024/03/17 10:03:09;;;;;;;;;;;;;;;14.70;37.81;102031.44;5074340;27;97045;-72
2024/03/17 10:05:37;;;;;;;;;;;;;;;14.36;37.03;102034.28;5078169;27;97667;-69
2024/03/17 10:08:03;;;;;;;;;;;;;;;14.15;37.20;102028.75;5069600;27;98917;-70
2024/03/17 10:10:29;;;;;;;;;;;;;;;14.08;36.86;102036.03;5072807;27;96752;-70
2024/03/17 10:12:56;;;;;;;;;;;;;;;13.95;37.54;102029.34;5072769;27;96961;-70
2024/03/17 10:15:23;;;;;;;;;;;;;;;13.89;37.95;102034.81;5071563;27;98857;-71
2024/03/17 10:17:49;;;;;;;;;;;;;;;13.78;37.52;102028.97;5073499;27;101273;-71
2024/03/17 10:20:17;;;;;;;;;;;;;;;14.10;37.28;102034.22;5073960;27;96763;-71
2024/03/17 10:23:00;;;;;;;;;;;;;;;14.24;37.25;102034.63;5073730;27;97336;-71
2024/03/17 10:25:30;;;;;;;;;;;;;;;13.87;36.69;102040.19;5072399;27;101425;-70
2024/03/17 10:27:57;;;;;;;;;;;;;;;14.36;36.57;102042.28;5074117;27;99352;-70
2024/03/17 10:30:25;;;;;;;;;;;;;;;14.30;36.09;102034.47;5074863;27;97424;-70
2024/03/17 10:32:55;;;;;;;;;;;;;;;14.21;36.21;102032.09;5076223;27;96802;-71
2024/03/17 10:35:29;;;;;;;;;;;;;;;13.59;37.25;102038.34;5071807;27;97602;-71
2024/03/17 10:37:55;;;;;;;;;;;;;;;13.06;38.22;102032.66;5064735;27;98789;-70
2024/03/17 10:40:24;;;;;;;;;;;;;;;13.31;38.19;102038.22;5071784;27;97666;-70
2024/03/17 10:42:51;;;;;;;;;;;;;;;13.42;38.23;102034.34;5067913;27;97157;-70
2024/03/17 10:45:17;;;;;;;;;;;;;;;14.38;37.03;102028.06;5068391;27;99329;-72
2024/03/17 10:47:44;;;;;;;;;;;;;;;15.14;36.13;102043.31;5077098;27;99201;-70
2024/03/17 10:50:16;;;;;;;;;;;;;;;15.13;35.17;102038.91;5072360;27;96808;-70
2024/03/17 10:52:45;;;;;;;;;;;;;;;15.14;35.28;102037.09;5071862;27;97696;-71
2024/03/17 10:55:18;;;;;;;;;;;;;;;14.59;35.76;102033.59;5072191;27;101300;-71
2024/03/17 10:57:48;;;;;;;;;;;;;;;14.62;35.82;102038.81;5075555;27;100693;-70
2024/03/17 11:00:17;;;;;;;;;;;;;;;14.71;35.74;102042.97;5072800;27;97190;-72
2024/03/17 11:02:45;;;;;;;;;;;;;;;13.67;37.19;102037.22;5077444;27;96889;-71
2024/03/17 11:05:14;;;;;;;;;;;;;;;13.95;37.45;102040.84;5068830;27;98884;-71
2024/03/17 11:07:45;;;;;;;;;;;;;;;13.81;36.99;102032.38;5077458;27;99124;-70
2024/03/17 11:10:16;;;;;;;;;;;;;;;13.37;37.40;102040.72;5073926;27;97545;-70
2024/03/17 11:12:44;;;;;;;;;;;;;;;14.07;37.12;102039.59;5074811;27;96922;-71
2024/03/17 11:15:33;;;;;;;;;;;;;;;14.20;37.06;102032.13;5074936;27;101317;-71
2024/03/17 11:18:16;;;;;;;;;;;;;;;14.57;36.50;102031.91;5074688;27;98825;-70
2024/03/17 11:20:44;;;;;;;;;;;;;;;14.44;36.26;102026.09;5073645;27;96799;-71
2024/03/17 11:23:10;;;;;;;;;;;;;;;14.28;36.29;102020.34;5074841;27;96788;-70
2024/03/17 11:25:40;;;;;;;;;;;;;;;14.44;36.09;102025.25;5073818;27;99277;-71
2024/03/17 11:28:09;;;;;;;;;;;;;;;13.86;35.67;102027.81;5074641;27;99246;-71
2024/03/17 11:30:54;;;;;;;;;;;;;;;13.33;36.70;102028.41;5072856;27;96738;-71
2024/03/17 11:33:35;;;;;;;;;;;;;;;13.46;37.04;102028.03;5069859;27;96908;-71
2024/03/17 11:36:16;;;;;;;;;;;;;;;13.23;37.40;102018.97;5068279;27;101085;-71
2024/03/17 11:38:53;;;;;;;;;;;;;;;13.44;37.42;102029.91;5073466;27;98961;-71
2024/03/17 11:41:31;;;;;;;;;;;;;;;13.42;37.57;102025.53;5080207;27;96855;-73
2024/03/17 11:44:12;;;;;;;;;;;;;;;13.66;37.80;102024.84;5074840;27;97015;-71
2024/03/17 11:46:37;;;;;;;;;;;;;;;13.76;36.80;102025.47;5075644;27;103037;-70
2024/03/17 11:49:04;;;;;;;;;;;;;;;14.00;36.79;102029.19;5077419;27;100464;-70
2024/03/17 11:51:30;;;;;;;;;;;;;;;13.73;36.36;102025.53;5071748;27;96823;-74
2024/03/17 11:53:59;;;;;;;;;;;;;;;13.30;35.90;102020.53;5074676;27;97405;-75
2024/03/17 11:56:26;;;;;;;;;;;;;;;12.82;36.52;102018.19;5071264;27;100005;-74
2024/03/17 11:59:04;;;;;;;;;;;;;;;13.49;36.56;102021.78;5071471;27;99491;-75
2024/03/17 12:01:29;;;;;;;;;;;;;;;13.52;36.72;102027.88;5073326;27;97529;-74
2024/03/17 12:03:57;;;;;;;;;;;;;;;13.69;35.58;102018.59;5075917;27;96864;-75
2024/03/17 12:06:27;;;;;;;;;;;;;;;13.71;34.87;102017.63;5071912;27;99619;-75
2024/03/17 12:08:53;;;;;;;;;;;;;;;13.42;34.65;102017.56;5072227;27;101146;-74
2024/03/17 12:11:20;;;;;;;;;;;;;;;13.80;33.91;102025.31;5073323;27;96776;-75
2024/03/17 12:13:46;;;;;;;;;;;;;;;13.54;33.75;102014.56;5077761;27;97258;-74
2024/03/17 12:16:12;;;;;;;;;;;;;;;13.65;33.92;102023.13;5069134;27;99191;-74
2024/03/17 12:18:40;;;;;;;;;;;;;;;13.73;34.02;102009.59;5073867;27;100362;-73
2024/03/17 12:21:10;;;;;;;;;;;;;;;14.25;34.22;102014.25;5076719;27;96867;-74
2024/03/17 12:23:37;;;;;;;;;;;;;;;14.50;33.22;102015.28;5072690;27;96802;-74
2024/03/17 12:26:02;;;;;;;;;;;;;;;14.45;32.98;102006.56;5076713;27;98843;-71
2024/03/17 12:28:30;;;;;;;;;;;;;;;12.67;35.37;102006.16;5073781;27;99004;-70
2024/03/17 12:30:59;;;;;;;;;;;;;;;12.25;36.74;102005.41;5075197;27;98002;-71